sensor_id;sensor_type;location;lat;lon;timestamp;P1;durP1;ratioP1;P2;durP2;ratioP2
417;SDS011;49;48.530;9.200;2023-04-29T00:02:02;6.00;;;5.00;;
417;SDS011;49;48.530;9.200;2023-04-29T00:04:29;8.20;;;4.97;;
417;SDS011;49;48.530;9.200;2023-04-29T00:06:58;5.23;;;4.37;;
417;SDS011;49;48.530;9.200;2023-04-29T00:09:26;5.90;;;4.07;;
417;SDS011;49;48.530;9.200;2023-04-29T00:11:53;5.70;;;4.90;;
417;SDS011;49;48.530;9.200;2023-04-29T00:14:21;5.13;;;4.70;;
417;SDS011;49;48.530;9.200;2023-04-29T00:16:50;5.73;;;4.87;;
417;SDS011;49;48.530;9.200;2023-04-29T00:19:17;8.90;;;5.33;;
417;SDS011;49;48.530;9.200;2023-04-29T00:21:45;11.73;;;5.40;;
417;SDS011;49;48.530;9.200;2023-04-29T00:24:13;8.60;;;5.63;;
417;SDS011;49;48.530;9.200;2023-04-29T00:26:40;10.37;;;5.30;;
417;SDS011;49;48.530;9.200;2023-04-29T00:29:07;9.00;;;5.63;;
417;SDS011;49;48.530;9.200;2023-04-29T00:31:34;11.10;;;5.50;;
417;SDS011;49;48.530;9.200;2023-04-29T00:34:03;19.63;;;5.07;;
417;SDS011;49;48.530;9.200;2023-04-29T00:36:31;18.70;;;6.40;;
417;SDS011;49;48.530;9.200;2023-04-29T00:38:58;6.40;;;5.50;;
417;SDS011;49;48.530;9.200;2023-04-29T00:41:25;11.67;;;4.70;;
417;SDS011;49;48.530;9.200;2023-04-29T00:43:52;6.03;;;4.33;;
417;SDS011;49;48.530;9.200;2023-04-29T00:46:20;6.70;;;5.30;;
417;SDS011;49;48.530;9.200;2023-04-29T00:48:47;9.20;;;5.90;;
417;SDS011;49;48.530;9.200;2023-04-29T00:51:16;11.30;;;6.47;;
417;SDS011;49;48.530;9.200;2023-04-29T00:53:43;6.10;;;5.30;;
417;SDS011;49;48.530;9.200;2023-04-29T00:56:11;8.43;;;6.87;;
417;SDS011;49;48.530;9.200;2023-04-29T00:58:40;9.80;;;7.33;;
417;SDS011;49;48.530;9.200;2023-04-29T01:01:14;12.10;;;7.57;;
417;SDS011;49;48.530;9.200;2023-04-29T01:03:43;9.40;;;7.60;;
417;SDS011;49;48.530;9.200;2023-04-29T01:06:13;8.23;;;6.70;;
417;SDS011;49;48.530;9.200;2023-04-29T01:08:57;10.23;;;7.37;;
417;SDS011;49;48.530;9.200;2023-04-29T01:11:39;8.00;;;7.07;;
417;SDS011;49;48.530;9.200;2023-04-29T01:14:15;6.93;;;6.20;;
417;SDS011;49;48.530;9.200;2023-04-29T01:16:43;7.63;;;6.23;;
417;SDS011;49;48.530;9.200;2023-04-29T01:19:19;12.83;;;7.10;;
417;SDS011;49;48.530;9.200;2023-04-29T01:22:06;11.13;;;6.20;;
417;SDS011;49;48.530;9.200;2023-04-29T01:24:37;14.23;;;7.33;;
417;SDS011;49;48.530;9.200;2023-04-29T01:27:10;7.30;;;6.30;;
417;SDS011;49;48.530;9.200;2023-04-29T01:29:49;13.13;;;8.00;;
417;SDS011;49;48.530;9.200;2023-04-29T01:32:23;8.70;;;7.00;;
417;SDS011;49;48.530;9.200;2023-04-29T01:35:10;9.03;;;6.83;;
417;SDS011;49;48.530;9.200;2023-04-29T01:37:48;9.00;;;7.40;;
417;SDS011;49;48.530;9.200;2023-04-29T01:40:24;9.53;;;6.67;;
417;SDS011;49;48.530;9.200;2023-04-29T01:42:59;7.90;;;6.50;;
417;SDS011;49;48.530;9.200;2023-04-29T01:45:29;9.10;;;6.97;;
417;SDS011;49;48.530;9.200;2023-04-29T01:47:59;9.60;;;6.80;;
417;SDS011;49;48.530;9.200;2023-04-29T01:50:27;8.53;;;6.40;;
417;SDS011;49;48.530;9.200;2023-04-29T01:52:54;7.20;;;6.10;;
417;SDS011;49;48.530;9.200;2023-04-29T01:55:23;8.17;;;6.40;;
417;SDS011;49;48.530;9.200;2023-04-29T01:57:53;10.17;;;7.10;;
417;SDS011;49;48.530;9.200;2023-04-29T02:00:22;8.90;;;5.23;;
417;SDS011;49;48.530;9.200;2023-04-29T02:02:50;8.70;;;5.93;;
417;SDS011;49;48.530;9.200;2023-04-29T02:05:17;10.67;;;5.50;;
417;SDS011;49;48.530;9.200;2023-04-29T02:07:44;7.33;;;5.63;;
417;SDS011;49;48.530;9.200;2023-04-29T02:10:12;6.53;;;4.50;;
417;SDS011;49;48.530;9.200;2023-04-29T02:12:44;10.40;;;6.30;;
417;SDS011;49;48.530;9.200;2023-04-29T02:15:12;9.70;;;6.80;;
417;SDS011;49;48.530;9.200;2023-04-29T02:17:39;10.70;;;6.87;;
417;SDS011;49;48.530;9.200;2023-04-29T02:20:07;7.40;;;5.93;;
417;SDS011;49;48.530;9.200;2023-04-29T02:22:34;10.57;;;6.10;;
417;SDS011;49;48.530;9.200;2023-04-29T02:25:02;6.10;;;5.07;;
417;SDS011;49;48.530;9.200;2023-04-29T02:27:30;8.63;;;6.30;;
417;SDS011;49;48.530;9.200;2023-04-29T02:29:59;7.33;;;6.00;;
417;SDS011;49;48.530;9.200;2023-04-29T02:32:34;6.03;;;4.63;;
417;SDS011;49;48.530;9.200;2023-04-29T02:35:03;5.57;;;4.40;;
417;SDS011;49;48.530;9.200;2023-04-29T02:37:32;7.17;;;5.83;;
417;SDS011;49;48.530;9.200;2023-04-29T02:40:06;7.33;;;5.83;;
417;SDS011;49;48.530;9.200;2023-04-29T02:42:34;12.40;;;5.90;;
417;SDS011;49;48.530;9.200;2023-04-29T02:45:04;8.17;;;5.80;;
417;SDS011;49;48.530;9.200;2023-04-29T02:47:32;5.63;;;5.00;;
417;SDS011;49;48.530;9.200;2023-04-29T02:50:02;5.83;;;4.40;;
417;SDS011;49;48.530;9.200;2023-04-29T02:52:30;8.60;;;5.60;;
417;SDS011;49;48.530;9.200;2023-04-29T02:54:57;9.47;;;6.17;;
417;SDS011;49;48.530;9.200;2023-04-29T02:57:25;7.53;;;5.97;;
417;SDS011;49;48.530;9.200;2023-04-29T02:59:53;8.43;;;6.60;;
417;SDS011;49;48.530;9.200;2023-04-29T03:02:23;8.47;;;6.20;;
417;SDS011;49;48.530;9.200;2023-04-29T03:04:52;11.33;;;6.70;;
417;SDS011;49;48.530;9.200;2023-04-29T03:07:19;10.13;;;6.80;;
417;SDS011;49;48.530;9.200;2023-04-29T03:09:46;14.33;;;6.80;;
417;SDS011;49;48.530;9.200;2023-04-29T03:12:14;18.93;;;6.97;;
417;SDS011;49;48.530;9.200;2023-04-29T03:14:41;13.50;;;7.30;;
417;SDS011;49;48.530;9.200;2023-04-29T03:17:08;7.90;;;6.20;;
417;SDS011;49;48.530;9.200;2023-04-29T03:19:37;9.03;;;5.67;;
417;SDS011;49;48.530;9.200;2023-04-29T03:22:04;6.60;;;5.23;;
417;SDS011;49;48.530;9.200;2023-04-29T03:24:32;12.00;;;6.10;;
417;SDS011;49;48.530;9.200;2023-04-29T03:26:59;7.70;;;5.70;;
417;SDS011;49;48.530;9.200;2023-04-29T03:29:26;9.60;;;5.07;;
417;SDS011;49;48.530;9.200;2023-04-29T03:31:53;8.13;;;5.73;;
417;SDS011;49;48.530;9.200;2023-04-29T03:34:22;13.20;;;6.97;;
417;SDS011;49;48.530;9.200;2023-04-29T03:36:51;7.57;;;6.43;;
417;SDS011;49;48.530;9.200;2023-04-29T03:39:18;9.10;;;6.30;;
417;SDS011;49;48.530;9.200;2023-04-29T03:41:46;10.50;;;6.30;;
417;SDS011;49;48.530;9.200;2023-04-29T03:44:14;8.80;;;5.40;;
417;SDS011;49;48.530;9.200;2023-04-29T03:46:42;7.03;;;5.30;;
417;SDS011;49;48.530;9.200;2023-04-29T03:49:12;5.93;;;5.00;;
417;SDS011;49;48.530;9.200;2023-04-29T03:51:40;5.63;;;5.17;;
417;SDS011;49;48.530;9.200;2023-04-29T03:54:10;10.60;;;5.40;;
417;SDS011;49;48.530;9.200;2023-04-29T03:56:38;6.30;;;5.47;;
417;SDS011;49;48.530;9.200;2023-04-29T03:59:05;8.07;;;6.00;;
417;SDS011;49;48.530;9.200;2023-04-29T04:01:34;10.77;;;5.30;;
417;SDS011;49;48.530;9.200;2023-04-29T04:04:02;5.87;;;4.93;;
417;SDS011;49;48.530;9.200;2023-04-29T04:06:29;6.10;;;5.47;;
417;SDS011;49;48.530;9.200;2023-04-29T04:08:56;8.37;;;5.17;;
417;SDS011;49;48.530;9.200;2023-04-29T04:11:27;7.83;;;6.17;;
417;SDS011;49;48.530;9.200;2023-04-29T04:13:54;11.00;;;6.50;;
417;SDS011;49;48.530;9.200;2023-04-29T04:16:22;9.13;;;6.70;;
417;SDS011;49;48.530;9.200;2023-04-29T04:18:49;11.77;;;7.43;;
417;SDS011;49;48.530;9.200;2023-04-29T04:21:16;12.93;;;8.20;;
417;SDS011;49;48.530;9.200;2023-04-29T04:23:44;10.80;;;8.50;;
417;SDS011;49;48.530;9.200;2023-04-29T04:26:26;12.10;;;8.80;;
417;SDS011;49;48.530;9.200;2023-04-29T04:28:54;26.73;;;8.77;;
417;SDS011;49;48.530;9.200;2023-04-29T04:31:24;44.80;;;13.03;;
417;SDS011;49;48.530;9.200;2023-04-29T04:33:58;36.80;;;12.57;;
417;SDS011;49;48.530;9.200;2023-04-29T04:36:26;52.87;;;14.23;;
417;SDS011;49;48.530;9.200;2023-04-29T04:38:58;75.40;;;13.70;;
417;SDS011;49;48.530;9.200;2023-04-29T04:41:27;26.00;;;12.53;;
417;SDS011;49;48.530;9.200;2023-04-29T04:43:56;34.17;;;9.97;;
417;SDS011;49;48.530;9.200;2023-04-29T04:46:23;12.40;;;7.20;;
417;SDS011;49;48.530;9.200;2023-04-29T04:48:50;20.17;;;7.80;;
417;SDS011;49;48.530;9.200;2023-04-29T04:51:17;12.70;;;7.70;;
417;SDS011;49;48.530;9.200;2023-04-29T04:53:44;15.20;;;6.60;;
417;SDS011;49;48.530;9.200;2023-04-29T04:56:12;7.93;;;6.00;;
417;SDS011;49;48.530;9.200;2023-04-29T04:58:40;8.20;;;6.50;;
417;SDS011;49;48.530;9.200;2023-04-29T05:01:07;9.17;;;7.70;;
417;SDS011;49;48.530;9.200;2023-04-29T05:03:34;7.97;;;6.10;;
417;SDS011;49;48.530;9.200;2023-04-29T05:06:01;7.47;;;6.67;;
417;SDS011;49;48.530;9.200;2023-04-29T05:08:28;7.93;;;6.67;;
417;SDS011;49;48.530;9.200;2023-04-29T05:10:56;9.37;;;6.87;;
417;SDS011;49;48.530;9.200;2023-04-29T05:13:23;6.93;;;6.00;;
417;SDS011;49;48.530;9.200;2023-04-29T05:15:52;9.77;;;6.50;;
417;SDS011;49;48.530;9.200;2023-04-29T05:18:19;9.50;;;6.40;;
417;SDS011;49;48.530;9.200;2023-04-29T05:20:46;6.03;;;5.70;;
417;SDS011;49;48.530;9.200;2023-04-29T05:23:13;9.40;;;6.67;;
417;SDS011;49;48.530;9.200;2023-04-29T05:25:40;8.10;;;6.70;;
417;SDS011;49;48.530;9.200;2023-04-29T05:28:07;7.03;;;6.20;;
417;SDS011;49;48.530;9.200;2023-04-29T05:30:34;6.90;;;5.00;;
417;SDS011;49;48.530;9.200;2023-04-29T05:33:08;3.90;;;3.70;;
417;SDS011;49;48.530;9.200;2023-04-29T05:35:39;5.03;;;3.93;;
417;SDS011;49;48.530;9.200;2023-04-29T05:38:06;6.10;;;3.40;;
417;SDS011;49;48.530;9.200;2023-04-29T05:40:34;5.20;;;3.40;;
417;SDS011;49;48.530;9.200;2023-04-29T05:43:02;4.20;;;3.47;;
417;SDS011;49;48.530;9.200;2023-04-29T05:45:29;3.63;;;3.10;;
417;SDS011;49;48.530;9.200;2023-04-29T05:47:56;3.83;;;2.90;;
417;SDS011;49;48.530;9.200;2023-04-29T05:50:25;10.03;;;3.03;;
417;SDS011;49;48.530;9.200;2023-04-29T05:52:52;5.03;;;3.20;;
417;SDS011;49;48.530;9.200;2023-04-29T05:55:20;3.10;;;2.70;;
417;SDS011;49;48.530;9.200;2023-04-29T05:57:48;3.43;;;2.90;;
417;SDS011;49;48.530;9.200;2023-04-29T06:00:15;8.20;;;2.77;;
417;SDS011;49;48.530;9.200;2023-04-29T06:02:42;7.47;;;2.67;;
417;SDS011;49;48.530;9.200;2023-04-29T06:05:10;4.33;;;2.60;;
417;SDS011;49;48.530;9.200;2023-04-29T06:07:40;6.20;;;2.47;;
417;SDS011;49;48.530;9.200;2023-04-29T06:10:09;3.67;;;2.47;;
417;SDS011;49;48.530;9.200;2023-04-29T06:12:36;5.93;;;2.97;;
417;SDS011;49;48.530;9.200;2023-04-29T06:15:03;3.40;;;2.30;;
417;SDS011;49;48.530;9.200;2023-04-29T06:17:31;3.17;;;2.67;;
417;SDS011;49;48.530;9.200;2023-04-29T06:19:59;4.33;;;2.40;;
417;SDS011;49;48.530;9.200;2023-04-29T06:22:28;3.87;;;2.63;;
417;SDS011;49;48.530;9.200;2023-04-29T06:24:57;2.93;;;2.33;;
417;SDS011;49;48.530;9.200;2023-04-29T06:27:25;11.57;;;3.67;;
417;SDS011;49;48.530;9.200;2023-04-29T06:29:54;4.90;;;2.60;;
417;SDS011;49;48.530;9.200;2023-04-29T06:32:23;6.33;;;2.60;;
417;SDS011;49;48.530;9.200;2023-04-29T06:34:53;3.80;;;2.30;;
417;SDS011;49;48.530;9.200;2023-04-29T06:37:20;4.57;;;3.00;;
417;SDS011;49;48.530;9.200;2023-04-29T06:39:47;2.50;;;2.30;;
417;SDS011;49;48.530;9.200;2023-04-29T06:42:16;3.40;;;2.30;;
417;SDS011;49;48.530;9.200;2023-04-29T06:44:44;3.80;;;2.00;;
417;SDS011;49;48.530;9.200;2023-04-29T06:47:12;4.43;;;2.70;;
417;SDS011;49;48.530;9.200;2023-04-29T06:49:39;6.90;;;2.70;;
417;SDS011;49;48.530;9.200;2023-04-29T06:52:08;5.10;;;2.60;;
417;SDS011;49;48.530;9.200;2023-04-29T06:54:36;7.60;;;2.43;;
417;SDS011;49;48.530;9.200;2023-04-29T06:57:04;7.90;;;2.30;;
417;SDS011;49;48.530;9.200;2023-04-29T06:59:33;5.33;;;2.53;;
417;SDS011;49;48.530;9.200;2023-04-29T07:02:00;4.70;;;1.77;;
417;SDS011;49;48.530;9.200;2023-04-29T07:04:29;4.87;;;2.00;;
417;SDS011;49;48.530;9.200;2023-04-29T07:06:58;3.20;;;1.63;;
417;SDS011;49;48.530;9.200;2023-04-29T07:09:26;3.30;;;1.80;;
417;SDS011;49;48.530;9.200;2023-04-29T07:11:53;4.50;;;2.30;;
417;SDS011;49;48.530;9.200;2023-04-29T07:14:20;3.00;;;2.17;;
417;SDS011;49;48.530;9.200;2023-04-29T07:16:57;2.97;;;2.23;;
417;SDS011;49;48.530;9.200;2023-04-29T07:19:24;7.07;;;1.90;;
417;SDS011;49;48.530;9.200;2023-04-29T07:21:51;4.67;;;2.20;;
417;SDS011;49;48.530;9.200;2023-04-29T07:24:19;4.70;;;2.00;;
417;SDS011;49;48.530;9.200;2023-04-29T07:26:47;6.60;;;1.77;;
417;SDS011;49;48.530;9.200;2023-04-29T07:29:14;2.07;;;1.70;;
417;SDS011;49;48.530;9.200;2023-04-29T07:31:41;3.10;;;1.73;;
417;SDS011;49;48.530;9.200;2023-04-29T07:34:09;2.53;;;1.63;;
417;SDS011;49;48.530;9.200;2023-04-29T07:36:36;3.10;;;1.80;;
417;SDS011;49;48.530;9.200;2023-04-29T07:39:03;3.63;;;2.17;;
417;SDS011;49;48.530;9.200;2023-04-29T07:41:30;9.83;;;1.67;;
417;SDS011;49;48.530;9.200;2023-04-29T07:43:57;4.33;;;1.87;;
417;SDS011;49;48.530;9.200;2023-04-29T07:46:24;1.60;;;1.60;;
417;SDS011;49;48.530;9.200;2023-04-29T07:48:51;2.43;;;1.73;;
417;SDS011;49;48.530;9.200;2023-04-29T07:51:19;5.10;;;2.20;;
417;SDS011;49;48.530;9.200;2023-04-29T07:53:47;2.10;;;1.80;;
417;SDS011;49;48.530;9.200;2023-04-29T07:56:14;4.70;;;2.20;;
417;SDS011;49;48.530;9.200;2023-04-29T07:58:41;2.67;;;1.93;;
417;SDS011;49;48.530;9.200;2023-04-29T08:01:08;2.60;;;2.10;;
417;SDS011;49;48.530;9.200;2023-04-29T08:03:36;3.80;;;2.00;;
417;SDS011;49;48.530;9.200;2023-04-29T08:06:03;2.30;;;2.20;;
417;SDS011;49;48.530;9.200;2023-04-29T08:08:32;4.07;;;2.20;;
417;SDS011;49;48.530;9.200;2023-04-29T08:10:59;3.77;;;2.30;;
417;SDS011;49;48.530;9.200;2023-04-29T08:13:26;3.00;;;2.30;;
417;SDS011;49;48.530;9.200;2023-04-29T08:15:53;6.43;;;2.10;;
417;SDS011;49;48.530;9.200;2023-04-29T08:18:20;5.97;;;2.70;;
417;SDS011;49;48.530;9.200;2023-04-29T08:20:47;6.17;;;3.13;;
417;SDS011;49;48.530;9.200;2023-04-29T08:23:15;8.70;;;2.10;;
417;SDS011;49;48.530;9.200;2023-04-29T08:25:44;3.33;;;2.00;;
417;SDS011;49;48.530;9.200;2023-04-29T08:28:11;2.60;;;2.30;;
417;SDS011;49;48.530;9.200;2023-04-29T08:30:38;3.90;;;2.40;;
417;SDS011;49;48.530;9.200;2023-04-29T08:33:06;2.53;;;2.33;;
417;SDS011;49;48.530;9.200;2023-04-29T08:35:33;6.73;;;2.80;;
417;SDS011;49;48.530;9.200;2023-04-29T08:38:01;1.87;;;1.77;;
417;SDS011;49;48.530;9.200;2023-04-29T08:40:30;2.47;;;2.27;;
417;SDS011;49;48.530;9.200;2023-04-29T08:43:00;2.67;;;2.33;;
417;SDS011;49;48.530;9.200;2023-04-29T08:45:28;3.93;;;3.30;;
417;SDS011;49;48.530;9.200;2023-04-29T08:47:57;11.73;;;6.47;;
417;SDS011;49;48.530;9.200;2023-04-29T08:50:26;4.33;;;1.83;;
417;SDS011;49;48.530;9.200;2023-04-29T08:52:54;9.87;;;1.80;;
417;SDS011;49;48.530;9.200;2023-04-29T08:55:21;4.07;;;2.63;;
417;SDS011;49;48.530;9.200;2023-04-29T08:57:50;2.93;;;2.07;;
417;SDS011;49;48.530;9.200;2023-04-29T09:00:21;2.80;;;1.97;;
417;SDS011;49;48.530;9.200;2023-04-29T09:02:49;3.17;;;2.00;;
417;SDS011;49;48.530;9.200;2023-04-29T09:05:16;4.43;;;2.23;;
417;SDS011;49;48.530;9.200;2023-04-29T09:07:45;5.77;;;1.87;;
417;SDS011;49;48.530;9.200;2023-04-29T09:10:18;2.40;;;2.27;;
417;SDS011;49;48.530;9.200;2023-04-29T09:12:48;6.80;;;2.60;;
417;SDS011;49;48.530;9.200;2023-04-29T09:15:18;5.60;;;2.30;;
417;SDS011;49;48.530;9.200;2023-04-29T09:18:01;4.40;;;2.43;;
417;SDS011;49;48.530;9.200;2023-04-29T09:20:44;4.80;;;3.43;;
417;SDS011;49;48.530;9.200;2023-04-29T09:23:11;6.73;;;1.90;;
417;SDS011;49;48.530;9.200;2023-04-29T09:25:39;2.43;;;2.07;;
417;SDS011;49;48.530;9.200;2023-04-29T09:28:13;2.60;;;2.20;;
417;SDS011;49;48.530;9.200;2023-04-29T09:30:46;2.27;;;2.10;;
417;SDS011;49;48.530;9.200;2023-04-29T09:33:14;4.60;;;1.90;;
417;SDS011;49;48.530;9.200;2023-04-29T09:35:41;2.43;;;2.00;;
417;SDS011;49;48.530;9.200;2023-04-29T09:38:09;6.40;;;2.00;;
417;SDS011;49;48.530;9.200;2023-04-29T09:43:28;3.03;;;2.03;;
417;SDS011;49;48.530;9.200;2023-04-29T09:45:57;3.57;;;1.93;;
417;SDS011;49;48.530;9.200;2023-04-29T09:48:24;2.10;;;1.67;;
417;SDS011;49;48.530;9.200;2023-04-29T09:50:58;2.80;;;2.00;;
417;SDS011;49;48.530;9.200;2023-04-29T09:53:27;3.00;;;2.20;;
417;SDS011;49;48.530;9.200;2023-04-29T09:55:58;3.50;;;2.53;;
417;SDS011;49;48.530;9.200;2023-04-29T09:58:27;2.43;;;1.90;;
417;SDS011;49;48.530;9.200;2023-04-29T10:00:58;2.73;;;2.00;;
417;SDS011;49;48.530;9.200;2023-04-29T10:03:28;7.53;;;1.97;;
417;SDS011;49;48.530;9.200;2023-04-29T10:05:58;6.33;;;2.87;;
417;SDS011;49;48.530;9.200;2023-04-29T10:08:27;3.27;;;2.20;;
417;SDS011;49;48.530;9.200;2023-04-29T10:10:55;3.50;;;1.90;;
417;SDS011;49;48.530;9.200;2023-04-29T10:13:25;2.40;;;2.00;;
417;SDS011;49;48.530;9.200;2023-04-29T10:15:55;1.90;;;1.83;;
417;SDS011;49;48.530;9.200;2023-04-29T10:18:29;2.90;;;1.80;;
417;SDS011;49;48.530;9.200;2023-04-29T10:21:01;2.60;;;1.93;;
417;SDS011;49;48.530;9.200;2023-04-29T10:23:32;1.83;;;1.60;;
417;SDS011;49;48.530;9.200;2023-04-29T10:26:00;7.33;;;2.07;;
417;SDS011;49;48.530;9.200;2023-04-29T10:28:29;2.00;;;1.90;;
417;SDS011;49;48.530;9.200;2023-04-29T10:30:59;2.80;;;2.10;;
417;SDS011;49;48.530;9.200;2023-04-29T10:33:29;2.20;;;2.00;;
417;SDS011;49;48.530;9.200;2023-04-29T10:35:58;6.70;;;2.70;;
417;SDS011;49;48.530;9.200;2023-04-29T10:38:28;3.07;;;2.17;;
417;SDS011;49;48.530;9.200;2023-04-29T10:41:01;3.50;;;2.00;;
417;SDS011;49;48.530;9.200;2023-04-29T10:43:33;4.20;;;2.30;;
417;SDS011;49;48.530;9.200;2023-04-29T10:46:20;2.50;;;2.17;;
417;SDS011;49;48.530;9.200;2023-04-29T10:48:50;3.80;;;2.13;;
417;SDS011;49;48.530;9.200;2023-04-29T10:51:28;2.73;;;2.47;;
417;SDS011;49;48.530;9.200;2023-04-29T10:53:57;2.00;;;1.90;;
417;SDS011;49;48.530;9.200;2023-04-29T10:56:38;3.87;;;1.93;;
417;SDS011;49;48.530;9.200;2023-04-29T10:59:10;2.43;;;1.97;;
417;SDS011;49;48.530;9.200;2023-04-29T11:01:44;3.53;;;1.90;;
417;SDS011;49;48.530;9.200;2023-04-29T11:04:12;2.00;;;1.83;;
417;SDS011;49;48.530;9.200;2023-04-29T11:06:41;3.60;;;1.87;;
417;SDS011;49;48.530;9.200;2023-04-29T11:09:10;4.50;;;1.93;;
417;SDS011;49;48.530;9.200;2023-04-29T11:11:43;3.87;;;2.30;;
417;SDS011;49;48.530;9.200;2023-04-29T11:14:14;3.73;;;2.43;;
417;SDS011;49;48.530;9.200;2023-04-29T11:17:01;2.63;;;2.40;;
417;SDS011;49;48.530;9.200;2023-04-29T11:19:31;4.07;;;2.20;;
417;SDS011;49;48.530;9.200;2023-04-29T11:22:03;2.30;;;2.10;;
417;SDS011;49;48.530;9.200;2023-04-29T11:24:47;5.43;;;2.23;;
417;SDS011;49;48.530;9.200;2023-04-29T11:27:16;2.00;;;1.90;;
417;SDS011;49;48.530;9.200;2023-04-29T11:29:44;2.60;;;1.90;;
417;SDS011;49;48.530;9.200;2023-04-29T11:32:14;2.07;;;1.97;;
417;SDS011;49;48.530;9.200;2023-04-29T11:34:41;2.87;;;2.17;;
417;SDS011;49;48.530;9.200;2023-04-29T11:37:08;2.33;;;1.93;;
417;SDS011;49;48.530;9.200;2023-04-29T11:39:36;2.40;;;2.20;;
417;SDS011;49;48.530;9.200;2023-04-29T11:42:03;2.37;;;2.10;;
417;SDS011;49;48.530;9.200;2023-04-29T11:44:34;2.27;;;2.07;;
417;SDS011;49;48.530;9.200;2023-04-29T11:47:03;1.80;;;1.77;;
417;SDS011;49;48.530;9.200;2023-04-29T11:49:33;3.37;;;2.40;;
417;SDS011;49;48.530;9.200;2023-04-29T11:52:01;4.37;;;2.33;;
417;SDS011;49;48.530;9.200;2023-04-29T11:54:29;4.00;;;2.37;;
417;SDS011;49;48.530;9.200;2023-04-29T11:56:57;2.20;;;2.03;;
417;SDS011;49;48.530;9.200;2023-04-29T11:59:28;7.73;;;2.87;;
417;SDS011;49;48.530;9.200;2023-04-29T12:01:57;3.20;;;2.20;;
417;SDS011;49;48.530;9.200;2023-04-29T12:04:24;1.93;;;1.80;;
417;SDS011;49;48.530;9.200;2023-04-29T12:06:55;5.33;;;2.17;;
417;SDS011;49;48.530;9.200;2023-04-29T12:09:23;2.40;;;2.20;;
417;SDS011;49;48.530;9.200;2023-04-29T12:11:51;3.70;;;1.83;;
417;SDS011;49;48.530;9.200;2023-04-29T12:14:18;2.37;;;2.00;;
417;SDS011;49;48.530;9.200;2023-04-29T12:16:45;2.83;;;2.30;;
417;SDS011;49;48.530;9.200;2023-04-29T12:19:13;3.03;;;2.10;;
417;SDS011;49;48.530;9.200;2023-04-29T12:21:49;4.27;;;2.20;;
417;SDS011;49;48.530;9.200;2023-04-29T12:24:19;5.37;;;2.43;;
417;SDS011;49;48.530;9.200;2023-04-29T12:26:46;2.70;;;2.60;;
417;SDS011;49;48.530;9.200;2023-04-29T12:29:14;3.77;;;2.63;;
417;SDS011;49;48.530;9.200;2023-04-29T12:31:41;5.07;;;2.90;;
417;SDS011;49;48.530;9.200;2023-04-29T12:34:08;5.10;;;2.97;;
417;SDS011;49;48.530;9.200;2023-04-29T12:36:35;2.40;;;2.20;;
417;SDS011;49;48.530;9.200;2023-04-29T12:39:04;4.67;;;2.80;;
417;SDS011;49;48.530;9.200;2023-04-29T12:41:38;3.80;;;2.70;;
417;SDS011;49;48.530;9.200;2023-04-29T12:44:06;3.60;;;2.40;;
417;SDS011;49;48.530;9.200;2023-04-29T12:46:34;4.90;;;2.20;;
417;SDS011;49;48.530;9.200;2023-04-29T12:49:02;4.00;;;2.30;;
417;SDS011;49;48.530;9.200;2023-04-29T12:51:29;7.53;;;3.37;;
417;SDS011;49;48.530;9.200;2023-04-29T12:53:57;5.57;;;2.10;;
417;SDS011;49;48.530;9.200;2023-04-29T12:56:25;5.10;;;2.40;;
417;SDS011;49;48.530;9.200;2023-04-29T12:58:53;3.63;;;2.47;;
417;SDS011;49;48.530;9.200;2023-04-29T13:01:20;5.47;;;2.70;;
417;SDS011;49;48.530;9.200;2023-04-29T13:03:47;4.27;;;2.50;;
417;SDS011;49;48.530;9.200;2023-04-29T13:06:15;2.90;;;2.57;;
417;SDS011;49;48.530;9.200;2023-04-29T13:08:42;4.93;;;2.73;;
417;SDS011;49;48.530;9.200;2023-04-29T13:11:09;7.00;;;2.80;;
417;SDS011;49;48.530;9.200;2023-04-29T13:13:37;12.63;;;2.47;;
417;SDS011;49;48.530;9.200;2023-04-29T13:16:07;2.63;;;2.40;;
417;SDS011;49;48.530;9.200;2023-04-29T13:18:33;2.70;;;2.30;;
417;SDS011;49;48.530;9.200;2023-04-29T13:21:01;6.13;;;2.70;;
417;SDS011;49;48.530;9.200;2023-04-29T13:23:28;2.47;;;2.10;;
417;SDS011;49;48.530;9.200;2023-04-29T13:25:54;2.80;;;2.20;;
417;SDS011;49;48.530;9.200;2023-04-29T13:28:21;4.00;;;2.50;;
417;SDS011;49;48.530;9.200;2023-04-29T13:30:48;6.30;;;3.27;;
417;SDS011;49;48.530;9.200;2023-04-29T13:33:17;4.60;;;3.40;;
417;SDS011;49;48.530;9.200;2023-04-29T13:35:44;9.73;;;3.57;;
417;SDS011;49;48.530;9.200;2023-04-29T13:38:13;6.57;;;4.20;;
417;SDS011;49;48.530;9.200;2023-04-29T13:40:41;10.50;;;5.27;;
417;SDS011;49;48.530;9.200;2023-04-29T13:43:08;7.53;;;4.40;;
417;SDS011;49;48.530;9.200;2023-04-29T13:45:35;5.10;;;4.17;;
417;SDS011;49;48.530;9.200;2023-04-29T13:48:02;11.43;;;4.40;;
417;SDS011;49;48.530;9.200;2023-04-29T13:50:31;7.17;;;4.40;;
417;SDS011;49;48.530;9.200;2023-04-29T13:52:58;9.60;;;4.77;;
417;SDS011;49;48.530;9.200;2023-04-29T13:55:25;9.77;;;5.17;;
417;SDS011;49;48.530;9.200;2023-04-29T13:57:52;9.17;;;5.07;;
417;SDS011;49;48.530;9.200;2023-04-29T14:00:20;7.40;;;4.27;;
417;SDS011;49;48.530;9.200;2023-04-29T14:02:46;8.80;;;4.87;;
417;SDS011;49;48.530;9.200;2023-04-29T14:05:13;7.77;;;4.47;;
417;SDS011;49;48.530;9.200;2023-04-29T14:07:42;7.50;;;4.13;;
417;SDS011;49;48.530;9.200;2023-04-29T14:10:09;12.30;;;4.17;;
417;SDS011;49;48.530;9.200;2023-04-29T14:12:36;9.93;;;4.40;;
417;SDS011;49;48.530;9.200;2023-04-29T14:15:03;8.37;;;4.40;;
417;SDS011;49;48.530;9.200;2023-04-29T14:17:31;9.83;;;4.87;;
417;SDS011;49;48.530;9.200;2023-04-29T14:19:57;8.53;;;4.00;;
417;SDS011;49;48.530;9.200;2023-04-29T14:22:24;5.10;;;4.20;;
417;SDS011;49;48.530;9.200;2023-04-29T14:24:53;6.23;;;4.20;;
417;SDS011;49;48.530;9.200;2023-04-29T14:27:20;6.40;;;4.77;;
417;SDS011;49;48.530;9.200;2023-04-29T14:29:47;7.27;;;5.13;;
417;SDS011;49;48.530;9.200;2023-04-29T14:32:14;7.00;;;4.80;;
417;SDS011;49;48.530;9.200;2023-04-29T14:34:41;6.83;;;4.70;;
417;SDS011;49;48.530;9.200;2023-04-29T14:37:07;5.53;;;4.93;;
417;SDS011;49;48.530;9.200;2023-04-29T14:39:35;12.17;;;5.33;;
417;SDS011;49;48.530;9.200;2023-04-29T14:42:06;5.90;;;4.83;;
417;SDS011;49;48.530;9.200;2023-04-29T14:44:33;13.13;;;4.53;;
417;SDS011;49;48.530;9.200;2023-04-29T14:47:00;7.00;;;5.03;;
417;SDS011;49;48.530;9.200;2023-04-29T14:49:27;9.67;;;5.17;;
417;SDS011;49;48.530;9.200;2023-04-29T14:51:54;12.40;;;5.73;;
417;SDS011;49;48.530;9.200;2023-04-29T14:54:21;10.90;;;5.50;;
417;SDS011;49;48.530;9.200;2023-04-29T14:56:48;5.90;;;5.30;;
417;SDS011;49;48.530;9.200;2023-04-29T14:59:17;11.83;;;5.00;;
417;SDS011;49;48.530;9.200;2023-04-29T15:01:44;8.30;;;5.50;;
417;SDS011;49;48.530;9.200;2023-04-29T15:04:11;12.13;;;5.80;;
417;SDS011;49;48.530;9.200;2023-04-29T15:06:38;10.00;;;6.63;;
417;SDS011;49;48.530;9.200;2023-04-29T15:09:05;10.40;;;5.23;;
417;SDS011;49;48.530;9.200;2023-04-29T15:11:33;8.80;;;5.67;;
417;SDS011;49;48.530;9.200;2023-04-29T15:13:59;9.67;;;6.00;;
417;SDS011;49;48.530;9.200;2023-04-29T15:16:28;7.33;;;5.40;;
417;SDS011;49;48.530;9.200;2023-04-29T15:18:55;11.33;;;6.63;;
417;SDS011;49;48.530;9.200;2023-04-29T15:21:23;6.63;;;5.40;;
417;SDS011;49;48.530;9.200;2023-04-29T15:23:51;10.07;;;5.90;;
417;SDS011;49;48.530;9.200;2023-04-29T15:26:18;8.70;;;6.20;;
417;SDS011;49;48.530;9.200;2023-04-29T15:28:46;10.23;;;6.53;;
417;SDS011;49;48.530;9.200;2023-04-29T15:31:13;8.77;;;5.80;;
417;SDS011;49;48.530;9.200;2023-04-29T15:33:41;9.53;;;6.20;;
417;SDS011;49;48.530;9.200;2023-04-29T15:36:08;8.17;;;6.07;;
417;SDS011;49;48.530;9.200;2023-04-29T15:38:35;10.30;;;6.47;;
417;SDS011;49;48.530;9.200;2023-04-29T15:41:02;15.93;;;8.60;;
417;SDS011;49;48.530;9.200;2023-04-29T15:43:29;12.73;;;6.60;;
417;SDS011;49;48.530;9.200;2023-04-29T15:45:57;8.63;;;7.00;;
417;SDS011;49;48.530;9.200;2023-04-29T15:48:24;13.47;;;6.70;;
417;SDS011;49;48.530;9.200;2023-04-29T15:50:53;15.43;;;7.93;;
417;SDS011;49;48.530;9.200;2023-04-29T15:53:21;10.10;;;7.30;;
417;SDS011;49;48.530;9.200;2023-04-29T15:55:48;10.13;;;7.77;;
417;SDS011;49;48.530;9.200;2023-04-29T15:58:15;13.50;;;7.97;;
417;SDS011;49;48.530;9.200;2023-04-29T16:00:42;13.77;;;8.73;;
417;SDS011;49;48.530;9.200;2023-04-29T16:03:09;10.83;;;7.90;;
417;SDS011;49;48.530;9.200;2023-04-29T16:05:36;16.70;;;7.93;;
417;SDS011;49;48.530;9.200;2023-04-29T16:08:05;8.70;;;7.20;;
417;SDS011;49;48.530;9.200;2023-04-29T16:10:32;9.60;;;6.90;;